createdAt,value
2024-02-24T00:02:11.340Z,10.80
2024-02-24T00:05:42.256Z,4.70
2024-02-24T00:09:30.671Z,6.80
2024-02-24T00:13:20.981Z,6.40
2024-02-24T00:33:18.614Z,2.80
2024-02-24T00:37:06.535Z,5.50
2024-02-24T00:41:09.418Z,5.80
2024-02-24T00:45:03.228Z,5.70
2024-02-24T00:48:58.123Z,7.60
2024-02-24T00:52:37.740Z,9.00
2024-02-24T00:56:30.644Z,8.00
2024-02-24T01:00:19.617Z,7.50
2024-02-24T01:04:07.597Z,7.50
2024-02-24T01:07:59.728Z,7.50
2024-02-24T01:16:12.368Z,5.20
2024-02-24T01:19:51.189Z,5.80
2024-02-24T01:23:44.296Z,4.70
2024-02-24T01:27:33.042Z,5.00
2024-02-24T01:31:20.968Z,4.80
2024-02-24T01:35:27.110Z,4.80
2024-02-24T01:39:28.379Z,4.90
2024-02-24T01:47:35.110Z,7.40
2024-02-24T01:51:30.200Z,9.30
2024-02-24T01:55:18.932Z,8.50
2024-02-24T01:59:08.750Z,9.30
2024-02-24T02:02:59.724Z,8.40
2024-02-24T02:06:46.786Z,5.60
2024-02-24T02:14:53.583Z,6.40
2024-02-24T02:18:55.715Z,6.10
2024-02-24T02:22:45.794Z,5.10
2024-02-24T02:26:34.670Z,7.20
2024-02-24T02:30:13.111Z,6.90
2024-02-24T02:34:01.813Z,7.00
2024-02-24T02:37:54.400Z,8.10
2024-02-24T02:41:47.980Z,6.60
2024-02-24T02:45:44.432Z,8.20
2024-02-24T02:53:05.881Z,7.40
2024-02-24T02:56:53.865Z,8.70
2024-02-24T03:00:41.093Z,8.60
2024-02-24T03:04:38.664Z,9.20
2024-02-24T03:08:26.706Z,8.30
2024-02-24T03:12:17.509Z,8.80
2024-02-24T03:20:42.348Z,3.40
2024-02-24T03:24:36.213Z,5.60
2024-02-24T03:28:24.948Z,5.50
2024-02-24T03:32:25.177Z,6.30
2024-02-24T03:36:22.081Z,5.70
2024-02-24T03:40:12.960Z,4.20
2024-02-24T03:44:15.954Z,4.50
2024-02-24T03:48:06.117Z,3.70
2024-02-24T03:52:06.706Z,2.80
2024-02-24T03:56:08.638Z,3.90
2024-02-24T03:59:56.623Z,3.40
2024-02-24T04:04:00.121Z,3.80
2024-02-24T04:07:48.050Z,3.50
2024-02-24T04:11:30.007Z,3.40
2024-02-24T04:15:34.937Z,4.70
2024-02-24T04:19:35.161Z,4.00
2024-02-24T04:23:23.132Z,4.30
2024-02-24T04:27:25.156Z,4.50
2024-02-24T04:31:13.074Z,4.20
2024-02-24T04:35:13.187Z,3.60
2024-02-24T04:43:24.885Z,5.00
2024-02-24T04:56:22.373Z,4.90
2024-02-24T05:00:10.224Z,4.60
2024-02-24T05:03:58.284Z,6.50
2024-02-24T05:12:06.767Z,8.30
2024-02-24T05:16:01.294Z,6.30
2024-02-24T05:19:52.188Z,5.20
2024-02-24T05:23:54.722Z,7.60
2024-02-24T05:27:46.076Z,6.60
2024-02-24T05:31:30.500Z,8.70
2024-02-24T05:35:30.387Z,8.50
2024-02-24T05:39:11.008Z,8.60
2024-02-24T05:43:08.764Z,9.10
2024-02-24T05:47:12.736Z,9.80
2024-02-24T05:51:15.396Z,9.80
2024-02-24T05:55:03.591Z,6.70
2024-02-24T05:58:51.354Z,11.20
2024-02-24T06:02:42.546Z,8.30
2024-02-24T06:06:36.380Z,9.80
2024-02-24T06:10:25.974Z,8.60
2024-02-24T06:14:23.885Z,9.60
2024-02-24T06:22:25.145Z,8.80
2024-02-24T06:26:13.180Z,10.10
2024-02-24T06:30:01.203Z,7.50
2024-02-24T06:38:05.527Z,7.00
2024-02-24T06:41:46.283Z,8.00
2024-02-24T06:45:36.161Z,7.60
2024-02-24T06:49:26.264Z,7.60
2024-02-24T06:53:20.468Z,9.30
2024-02-24T06:57:13.430Z,7.70
2024-02-24T07:01:00.520Z,9.50
2024-02-24T07:04:48.543Z,9.00
2024-02-24T07:08:47.648Z,9.50
2024-02-24T07:12:43.994Z,8.80
2024-02-24T07:16:32.389Z,8.50
2024-02-24T07:20:20.412Z,7.90
2024-02-24T07:24:15.962Z,9.90
2024-02-24T07:32:28.243Z,6.80
2024-02-24T07:36:17.994Z,5.70
2024-02-24T07:40:08.364Z,6.90
2024-02-24T07:44:02.390Z,9.70
2024-02-24T07:55:28.380Z,9.20
2024-02-24T08:03:37.021Z,6.30
2024-02-24T08:07:24.968Z,9.70
2024-02-24T08:11:06.706Z,7.80
2024-02-24T08:19:12.331Z,7.00
2024-02-24T08:22:58.733Z,7.80
2024-02-24T08:30:18.746Z,5.30
2024-02-24T08:38:18.041Z,6.10
2024-02-24T08:42:06.615Z,5.80
2024-02-24T08:45:59.238Z,5.40
2024-02-24T08:49:52.367Z,5.40
2024-02-24T08:53:41.620Z,3.70
2024-02-24T08:57:29.528Z,5.30
2024-02-24T09:00:59.713Z,5.80
2024-02-24T09:04:39.459Z,4.90
2024-02-24T09:08:20.451Z,4.30
2024-02-24T09:12:13.004Z,4.90
2024-02-24T09:15:59.922Z,5.30
2024-02-24T09:19:51.790Z,5.10
2024-02-24T09:23:25.112Z,5.10
2024-02-24T09:27:13.756Z,4.80
2024-02-24T09:31:07.521Z,4.50
2024-02-24T09:38:51.402Z,3.40
2024-02-24T09:42:56.033Z,3.90
2024-02-24T09:46:45.428Z,4.90
2024-02-24T09:50:34.142Z,5.20
2024-02-24T09:58:39.237Z,3.50
2024-02-24T10:11:10.635Z,5.00
2024-02-24T10:19:18.316Z,5.20
2024-02-24T10:23:09.529Z,4.80
2024-02-24T10:26:56.291Z,4.40
2024-02-24T10:30:44.255Z,4.50
2024-02-24T10:34:26.190Z,4.00
2024-02-24T10:38:23.963Z,4.20
2024-02-24T10:46:40.217Z,5.20
2024-02-24T10:50:30.289Z,4.10
2024-02-24T10:54:22.908Z,4.30
2024-02-24T10:58:10.767Z,4.80
2024-02-24T11:01:52.371Z,4.40
2024-02-24T11:09:49.747Z,4.80
2024-02-24T11:13:37.654Z,4.80
2024-02-24T11:17:18.574Z,3.60
2024-02-24T11:21:20.649Z,4.40
2024-02-24T11:25:23.858Z,4.60
2024-02-24T11:29:23.771Z,4.60
2024-02-24T11:33:09.308Z,4.90
2024-02-24T11:37:05.057Z,3.70
2024-02-24T11:40:56.344Z,4.00
2024-02-24T11:44:48.628Z,5.00
2024-02-24T11:48:45.933Z,4.80
2024-02-24T11:52:35.024Z,5.60
2024-02-24T12:00:37.723Z,5.40
2024-02-24T12:04:36.133Z,5.40
2024-02-24T12:08:33.452Z,5.40
2024-02-24T12:12:36.297Z,3.90
2024-02-24T12:16:28.053Z,4.80
2024-02-24T12:24:22.417Z,4.70
2024-02-24T12:31:49.026Z,5.00
2024-02-24T12:40:06.602Z,5.10
2024-02-24T12:43:58.505Z,4.30
2024-02-24T12:47:59.019Z,4.10
2024-02-24T12:56:15.903Z,3.90
2024-02-24T13:00:18.942Z,4.90
2024-02-24T13:04:11.005Z,4.10
2024-02-24T13:08:02.468Z,4.10
2024-02-24T13:11:55.560Z,5.20
2024-02-24T13:15:46.486Z,4.70
2024-02-24T13:23:58.959Z,6.20
2024-02-24T13:27:49.052Z,5.20
2024-02-24T13:31:39.276Z,4.90
2024-02-24T13:39:41.131Z,5.10
2024-02-24T13:43:31.742Z,6.10
2024-02-24T13:47:22.886Z,5.80
2024-02-24T13:51:18.645Z,6.80
2024-02-24T13:55:07.970Z,6.20
2024-02-24T13:58:55.402Z,5.80
2024-02-24T14:02:57.068Z,5.60
2024-02-24T14:06:51.990Z,5.70
2024-02-24T14:10:48.002Z,4.90
2024-02-24T14:14:32.856Z,5.90
2024-02-24T14:18:20.940Z,6.20
2024-02-24T14:22:08.897Z,5.60
2024-02-24T14:25:57.525Z,5.70
2024-02-24T14:29:45.464Z,4.80
2024-02-24T14:33:45.757Z,4.60
2024-02-24T14:37:34.569Z,5.60
2024-02-24T14:41:22.488Z,3.90
2024-02-24T14:45:05.142Z,5.50
2024-02-24T14:49:08.002Z,5.00
2024-02-24T14:52:54.867Z,3.70
2024-02-24T15:04:17.967Z,4.70
2024-02-24T15:09:30.220Z,4.80
2024-02-24T15:12:34.115Z,4.70
2024-02-24T15:16:21.978Z,5.40
2024-02-24T15:20:09.842Z,5.60
2024-02-24T15:25:04.584Z,5.10
2024-02-24T15:31:59.169Z,4.50
2024-02-24T15:35:23.298Z,3.50
2024-02-24T15:39:09.970Z,2.00
2024-02-24T15:42:56.332Z,2.20
2024-02-24T15:46:44.788Z,2.10
2024-02-24T15:50:35.383Z,1.20
2024-02-24T15:55:40.061Z,1.50
2024-02-24T15:58:56.151Z,1.30
2024-02-24T16:02:45.635Z,1.40
2024-02-24T16:06:33.750Z,1.10
2024-02-24T16:10:22.076Z,1.10
2024-02-24T16:14:39.020Z,1.00
2024-02-24T16:22:45.657Z,0.60
2024-02-24T16:26:45.573Z,0.80
2024-02-24T16:30:24.119Z,0.50
2024-02-24T16:34:16.104Z,0.40
2024-02-24T16:38:04.718Z,0.40
2024-02-24T16:42:08.803Z,0.30
2024-02-24T16:45:56.775Z,0.20
2024-02-24T16:53:56.254Z,0.20
2024-02-24T16:57:48.005Z,0.20
2024-02-24T17:01:39.996Z,0.30
2024-02-24T17:07:33.450Z,0.40
2024-02-24T17:09:50.897Z,0.20
2024-02-24T17:13:40.743Z,0.30
2024-02-24T17:17:21.345Z,0.40
2024-02-24T17:21:22.443Z,0.40
2024-02-24T17:25:12.527Z,0.40
2024-02-24T17:33:26.652Z,0.40
2024-02-24T17:36:43.160Z,0.40
2024-02-24T17:40:12.088Z,0.30
2024-02-24T17:44:11.137Z,0.50
2024-02-24T17:47:41.280Z,0.60
2024-02-24T17:51:15.517Z,1.00
2024-02-24T17:54:25.560Z,0.90
2024-02-24T18:06:24.501Z,0.30
2024-02-24T18:10:13.741Z,0.40
2024-02-24T18:13:46.680Z,0.40
2024-02-24T18:17:36.348Z,0.20
2024-02-24T18:21:20.280Z,0.20
2024-02-24T18:25:03.046Z,0.40
2024-02-24T18:28:34.730Z,0.30
2024-02-24T18:32:09.337Z,0.30
2024-02-24T18:35:52.366Z,0.70
2024-02-24T18:39:40.268Z,0.30
2024-02-24T18:43:32.668Z,0.40
2024-02-24T18:47:25.427Z,0.40
2024-02-24T18:51:06.307Z,0.20
2024-02-24T18:54:58.712Z,0.30
2024-02-24T18:58:46.694Z,0.60
2024-02-24T19:02:30.689Z,0.80
2024-02-24T19:06:19.219Z,0.30
2024-02-24T19:10:01.609Z,0.40
2024-02-24T19:21:48.741Z,0.90
2024-02-24T19:25:38.391Z,0.70
2024-02-24T19:29:17.666Z,0.60
2024-02-24T19:33:04.543Z,0.40
2024-02-24T19:36:57.934Z,0.60
2024-02-24T19:40:49.901Z,1.70
2024-02-24T19:44:42.791Z,1.20
2024-02-24T19:48:31.445Z,0.50
2024-02-24T19:52:24.423Z,0.80
2024-02-24T19:56:12.380Z,1.20
2024-02-24T19:59:44.591Z,1.10
2024-02-24T20:03:33.411Z,0.70
2024-02-24T20:07:05.689Z,0.80
2024-02-24T20:10:47.707Z,0.90
2024-02-24T20:21:29.292Z,0.60
2024-02-24T20:24:57.871Z,0.70
2024-02-24T20:28:17.960Z,0.60
2024-02-24T20:32:35.858Z,0.60
2024-02-24T20:35:23.199Z,0.70
2024-02-24T20:38:35.905Z,1.00
2024-02-24T20:42:05.664Z,0.80
2024-02-24T20:45:50.957Z,1.00
2024-02-24T20:49:09.680Z,0.90
2024-02-24T20:52:19.780Z,1.20
2024-02-24T20:55:47.630Z,1.40
2024-02-24T20:59:15.895Z,1.10
2024-02-24T21:02:43.619Z,1.60
2024-02-24T21:06:09.865Z,1.20
2024-02-24T21:12:35.885Z,1.50
2024-02-24T21:16:14.793Z,1.10
2024-02-24T21:19:41.372Z,1.90
2024-02-24T21:23:12.135Z,1.70
2024-02-24T21:26:40.005Z,1.30
2024-02-24T21:30:05.621Z,1.60
2024-02-24T21:33:35.770Z,1.30
2024-02-24T21:36:46.872Z,1.10
2024-02-24T21:40:00.161Z,1.60
2024-02-24T21:43:19.426Z,1.40
2024-02-24T21:46:32.370Z,1.00
2024-02-24T21:49:53.554Z,1.50
2024-02-24T21:53:04.775Z,1.40
2024-02-24T21:59:57.817Z,1.10
2024-02-24T22:03:25.505Z,1.20
2024-02-24T22:07:16.034Z,1.00
2024-02-24T22:10:31.214Z,1.80
2024-02-24T22:14:12.792Z,1.60
2024-02-24T22:17:52.315Z,1.80
2024-02-24T22:25:49.710Z,1.20
2024-02-24T22:29:24.223Z,1.40
2024-02-24T22:33:14.435Z,1.80
2024-02-24T22:37:15.222Z,2.30
2024-02-24T22:45:04.515Z,1.30
2024-02-24T22:48:40.992Z,1.90
2024-02-24T22:55:52.032Z,1.20
2024-02-24T22:59:05.765Z,2.10
2024-02-24T23:02:39.538Z,1.60
2024-02-24T23:06:32.240Z,1.20
2024-02-24T23:10:03.822Z,1.00
2024-02-24T23:17:50.485Z,0.80
2024-02-24T23:21:11.306Z,1.30
2024-02-24T23:29:02.712Z,1.60
2024-02-24T23:32:49.644Z,5.10
2024-02-24T23:36:24.653Z,5.60
2024-02-24T23:40:15.000Z,2.40
2024-02-24T23:44:18.213Z,2.00
2024-02-24T23:48:15.758Z,2.50
2024-02-24T23:56:22.443Z,2.00
